createdAt,value
2023-05-05T00:01:49.226Z,4.80
2023-05-05T00:04:17.960Z,5.40
2023-05-05T00:06:45.064Z,6.90
2023-05-05T00:09:12.734Z,4.90
2023-05-05T00:11:39.682Z,5.90
2023-05-05T00:14:06.745Z,4.80
2023-05-05T00:16:33.708Z,8.20
2023-05-05T00:19:00.584Z,6.60
2023-05-05T00:21:31.261Z,6.00
2023-05-05T00:23:58.110Z,6.90
2023-05-05T00:26:25.039Z,4.50
2023-05-05T00:28:52.439Z,12.00
2023-05-05T00:31:19.386Z,10.20
2023-05-05T00:33:46.836Z,11.50
2023-05-05T00:36:14.921Z,10.60
2023-05-05T00:38:41.871Z,9.90
2023-05-05T00:41:08.816Z,11.50
2023-05-05T00:43:36.289Z,11.00
2023-05-05T00:46:19.395Z,9.40
2023-05-05T00:48:46.657Z,8.00
2023-05-05T00:51:15.787Z,6.20
2023-05-05T00:53:45.101Z,8.90
2023-05-05T00:56:19.785Z,6.40
2023-05-05T00:58:46.885Z,6.90
2023-05-05T01:01:13.943Z,6.60
2023-05-05T01:03:43.932Z,5.40
2023-05-05T01:06:30.492Z,6.30
2023-05-05T01:09:02.111Z,8.40
2023-05-05T01:11:59.859Z,5.80
2023-05-05T01:14:40.926Z,7.10
2023-05-05T01:17:21.338Z,5.10
2023-05-05T01:20:06.482Z,7.80
2023-05-05T01:22:36.982Z,11.10
2023-05-05T01:25:12.516Z,5.60
2023-05-05T01:27:39.444Z,5.50
2023-05-05T01:30:28.399Z,8.70
2023-05-05T01:32:58.374Z,6.40
2023-05-05T01:35:36.679Z,7.50
2023-05-05T01:38:11.088Z,6.90
2023-05-05T01:40:43.730Z,5.20
2023-05-05T01:43:10.777Z,5.30
2023-05-05T01:45:38.933Z,8.60
2023-05-05T01:48:06.463Z,7.90
2023-05-05T01:50:33.677Z,6.40
2023-05-05T01:53:00.518Z,8.30
2023-05-05T01:55:28.826Z,6.60
2023-05-05T01:57:55.756Z,6.10
2023-05-05T02:00:25.205Z,5.10
2023-05-05T02:02:52.211Z,5.00
2023-05-05T02:05:21.952Z,6.50
2023-05-05T02:07:49.592Z,6.70
2023-05-05T02:10:16.746Z,5.90
2023-05-05T02:12:43.623Z,5.00
2023-05-05T02:15:11.475Z,10.40
2023-05-05T02:17:41.871Z,9.10
2023-05-05T02:20:11.477Z,10.20
2023-05-05T02:22:38.430Z,10.50
2023-05-05T02:25:06.151Z,12.20
2023-05-05T02:27:34.077Z,4.90
2023-05-05T02:30:04.670Z,9.10
2023-05-05T02:32:36.169Z,5.60
2023-05-05T02:35:12.793Z,8.90
2023-05-05T02:37:41.722Z,6.50
2023-05-05T02:40:09.589Z,6.40
2023-05-05T02:42:38.914Z,8.70
2023-05-05T02:45:15.636Z,8.00
2023-05-05T02:47:44.999Z,7.10
2023-05-05T02:50:12.375Z,9.50
2023-05-05T02:52:43.275Z,8.00
2023-05-05T02:55:10.599Z,6.70
2023-05-05T02:58:08.456Z,4.80
2023-05-05T03:00:47.840Z,6.70
2023-05-05T03:03:24.178Z,8.20
2023-05-05T03:06:04.690Z,6.10
2023-05-05T03:09:07.457Z,10.30
2023-05-05T03:12:05.568Z,7.60
2023-05-05T03:14:42.798Z,7.50
2023-05-05T03:17:12.214Z,5.20
2023-05-05T03:19:42.139Z,7.30
2023-05-05T03:22:09.173Z,14.10
2023-05-05T03:24:36.744Z,5.90
2023-05-05T03:27:06.178Z,7.00
2023-05-05T03:29:35.966Z,7.10
2023-05-05T03:32:04.883Z,9.70
2023-05-05T03:34:32.731Z,5.50
2023-05-05T03:37:00.128Z,7.00
2023-05-05T03:39:27.010Z,8.10
2023-05-05T03:41:54.605Z,7.60
2023-05-05T03:44:21.900Z,6.70
2023-05-05T03:46:48.930Z,6.90
2023-05-05T03:49:16.216Z,8.60
2023-05-05T03:51:43.542Z,21.50
2023-05-05T03:54:10.617Z,8.40
2023-05-05T03:56:37.741Z,12.00
2023-05-05T03:59:04.625Z,8.20
2023-05-05T04:01:31.668Z,9.40
2023-05-05T04:03:59.055Z,7.30
2023-05-05T04:06:26.573Z,5.60
2023-05-05T04:08:54.155Z,5.00
2023-05-05T04:11:21.521Z,8.00
2023-05-05T04:13:50.003Z,6.30
2023-05-05T04:16:17.621Z,9.50
2023-05-05T04:18:44.907Z,7.30
2023-05-05T04:21:11.891Z,8.50
2023-05-05T04:23:39.216Z,11.50
2023-05-05T04:26:06.821Z,10.20
2023-05-05T04:28:33.849Z,11.30
2023-05-05T04:31:02.762Z,17.90
2023-05-05T04:33:30.911Z,14.80
2023-05-05T04:35:58.507Z,12.90
2023-05-05T04:38:25.957Z,11.50
2023-05-05T04:40:53.352Z,11.00
2023-05-05T04:43:20.968Z,11.30
2023-05-05T04:45:55.474Z,12.80
2023-05-05T04:53:19.004Z,8.50
2023-05-05T04:55:46.035Z,8.80
2023-05-05T04:58:13.011Z,10.00
2023-05-05T05:00:39.972Z,7.90
2023-05-05T05:03:08.433Z,8.00
2023-05-05T05:05:35.396Z,8.80
2023-05-05T05:08:02.349Z,6.50
2023-05-05T05:10:29.713Z,8.70
2023-05-05T05:12:56.603Z,6.20
2023-05-05T05:15:23.632Z,10.00
2023-05-05T05:17:50.494Z,6.80
2023-05-05T05:20:17.529Z,6.60
2023-05-05T05:22:44.691Z,6.80
2023-05-05T05:25:14.328Z,8.00
2023-05-05T05:27:42.033Z,7.00
2023-05-05T05:30:11.904Z,6.40
2023-05-05T05:32:41.262Z,8.40
2023-05-05T05:35:11.562Z,5.90
2023-05-05T05:37:39.354Z,4.50
2023-05-05T05:40:08.117Z,4.90
2023-05-05T05:42:35.438Z,3.20
2023-05-05T05:45:07.474Z,8.30
2023-05-05T05:47:34.652Z,4.60
2023-05-05T05:50:01.888Z,3.70
2023-05-05T05:52:29.756Z,5.10
2023-05-05T05:54:56.643Z,4.90
2023-05-05T05:57:24.778Z,5.60
2023-05-05T05:59:52.253Z,4.20
2023-05-05T06:02:19.289Z,8.00
2023-05-05T06:04:47.292Z,6.60
2023-05-05T06:07:14.531Z,5.90
2023-05-05T06:09:41.863Z,4.10
2023-05-05T06:12:08.841Z,3.60
2023-05-05T06:14:36.300Z,7.30
2023-05-05T06:17:03.458Z,6.00
2023-05-05T06:19:30.644Z,3.30
2023-05-05T06:21:57.569Z,4.70
2023-05-05T06:24:24.858Z,3.90
2023-05-05T06:26:52.051Z,5.00
2023-05-05T06:29:18.931Z,4.40
2023-05-05T06:31:46.485Z,3.40
2023-05-05T06:34:13.584Z,7.40
2023-05-05T06:36:40.494Z,3.60
2023-05-05T06:39:07.405Z,3.70
2023-05-05T06:41:34.708Z,4.50
2023-05-05T06:44:02.683Z,4.80
2023-05-05T06:46:29.652Z,10.20
2023-05-05T06:48:56.511Z,3.80
2023-05-05T06:51:23.557Z,4.20
2023-05-05T06:53:51.264Z,3.20
2023-05-05T06:56:18.178Z,4.90
2023-05-05T06:58:45.061Z,3.20
2023-05-05T07:01:12.206Z,4.70
2023-05-05T07:03:39.152Z,6.20
2023-05-05T07:06:06.100Z,7.00
2023-05-05T07:08:33.026Z,6.10
2023-05-05T07:11:01.212Z,4.80
2023-05-05T07:13:28.139Z,3.80
2023-05-05T07:15:55.100Z,6.10
2023-05-05T07:18:22.151Z,3.80
2023-05-05T07:20:49.194Z,5.80
2023-05-05T07:23:16.236Z,7.30
2023-05-05T07:25:44.081Z,5.70
2023-05-05T07:28:11.264Z,8.30
2023-05-05T07:30:38.274Z,6.50
2023-05-05T07:33:05.353Z,4.90
2023-05-05T07:35:32.212Z,8.10
2023-05-05T07:37:59.079Z,7.00
2023-05-05T07:40:26.247Z,8.50
2023-05-05T07:42:53.248Z,6.70
2023-05-05T07:45:20.100Z,7.50
2023-05-05T07:47:47.069Z,9.20
2023-05-05T07:50:14.128Z,7.20
2023-05-05T07:52:46.880Z,6.20
2023-05-05T07:55:19.089Z,4.90
2023-05-05T07:57:46.347Z,8.60
2023-05-05T08:00:13.993Z,4.90
2023-05-05T08:02:41.688Z,4.40
2023-05-05T08:05:09.195Z,5.40
2023-05-05T08:07:41.099Z,4.60
2023-05-05T08:10:10.621Z,6.10
2023-05-05T08:12:37.775Z,3.50
2023-05-05T08:15:06.239Z,4.20
2023-05-05T08:17:50.335Z,2.90
2023-05-05T08:20:18.300Z,6.90
2023-05-05T08:22:45.366Z,4.40
2023-05-05T08:25:13.267Z,6.40
2023-05-05T08:27:41.189Z,3.00
2023-05-05T08:30:08.759Z,5.50
2023-05-05T08:32:35.728Z,3.40
2023-05-05T08:35:03.459Z,3.60
2023-05-05T08:37:50.133Z,6.30
2023-05-05T08:40:34.427Z,3.40
2023-05-05T08:43:01.517Z,2.40
2023-05-05T08:45:29.293Z,4.10
2023-05-05T08:47:57.336Z,3.70
2023-05-05T08:50:28.152Z,3.80
2023-05-05T08:53:16.646Z,6.50
2023-05-05T08:55:51.566Z,3.20
2023-05-05T08:58:19.197Z,3.60
2023-05-05T09:00:46.595Z,4.00
2023-05-05T09:03:13.656Z,3.00
2023-05-05T09:05:42.080Z,5.00
2023-05-05T09:08:10.569Z,3.70
2023-05-05T09:10:42.124Z,4.00
2023-05-05T09:13:09.288Z,5.20
2023-05-05T09:15:39.102Z,2.30
2023-05-05T09:18:09.249Z,2.80
2023-05-05T09:20:37.292Z,3.40
2023-05-05T09:23:10.960Z,8.30
2023-05-05T09:25:41.434Z,3.40
2023-05-05T09:28:16.258Z,3.70
2023-05-05T09:30:47.078Z,2.20
2023-05-05T09:33:14.377Z,3.70
2023-05-05T09:35:54.817Z,6.10
2023-05-05T09:38:24.037Z,4.50
2023-05-05T09:40:54.055Z,3.80
2023-05-05T09:43:23.043Z,2.80
2023-05-05T09:45:50.894Z,3.00
2023-05-05T09:48:28.581Z,3.70
2023-05-05T09:50:56.180Z,6.00
2023-05-05T09:53:24.182Z,4.60
2023-05-05T09:55:54.676Z,3.10
2023-05-05T09:58:26.452Z,3.40
2023-05-05T10:00:54.615Z,6.30
2023-05-05T10:03:21.874Z,2.30
2023-05-05T10:05:53.118Z,4.80
2023-05-05T10:08:21.295Z,2.70
2023-05-05T10:10:56.543Z,2.90
2023-05-05T10:13:24.371Z,4.30
2023-05-05T10:15:55.735Z,3.10
2023-05-05T10:18:30.680Z,4.30
2023-05-05T10:21:01.844Z,2.70
2023-05-05T10:23:32.501Z,3.70
2023-05-05T10:26:02.826Z,3.50
2023-05-05T10:28:46.364Z,1.70
2023-05-05T10:31:31.079Z,4.10
2023-05-05T10:34:04.186Z,2.00
2023-05-05T10:36:32.044Z,6.90
2023-05-05T10:38:59.265Z,2.80
2023-05-05T10:41:29.255Z,3.20
2023-05-05T10:43:59.571Z,3.60
2023-05-05T10:46:27.680Z,2.90
2023-05-05T10:49:00.226Z,3.60
2023-05-05T10:51:40.459Z,2.70
2023-05-05T10:54:09.032Z,5.20
2023-05-05T10:56:36.340Z,2.80
2023-05-05T10:59:03.265Z,1.90
2023-05-05T11:01:34.475Z,2.50
2023-05-05T11:04:18.225Z,2.70
2023-05-05T11:07:14.365Z,3.40
2023-05-05T11:09:58.238Z,2.30
2023-05-05T11:12:25.272Z,5.10
2023-05-05T11:15:26.736Z,2.20
2023-05-05T11:17:54.693Z,2.00
2023-05-05T11:20:37.720Z,2.80
2023-05-05T11:23:05.160Z,4.80
2023-05-05T11:25:40.928Z,3.30
2023-05-05T11:28:08.504Z,4.40
2023-05-05T11:30:36.296Z,1.80
2023-05-05T11:33:37.134Z,8.30
2023-05-05T11:36:06.829Z,3.70
2023-05-05T11:39:19.562Z,2.70
2023-05-05T11:42:10.109Z,2.10
2023-05-05T11:44:37.375Z,2.50
2023-05-05T11:47:04.413Z,2.60
2023-05-05T11:49:32.134Z,4.20
2023-05-05T11:52:08.756Z,4.20
2023-05-05T11:54:36.395Z,2.70
2023-05-05T11:57:05.579Z,2.70
2023-05-05T11:59:33.127Z,3.40
2023-05-05T12:02:00.483Z,2.80
2023-05-05T12:04:27.806Z,9.10
2023-05-05T12:06:55.565Z,2.30
2023-05-05T12:09:22.982Z,2.60
2023-05-05T12:11:50.808Z,2.30
2023-05-05T12:14:17.900Z,3.80
2023-05-05T12:16:57.696Z,3.60
2023-05-05T12:19:24.799Z,4.50
2023-05-05T12:21:54.404Z,2.80
2023-05-05T12:24:21.309Z,5.30
2023-05-05T12:26:48.314Z,5.00
2023-05-05T12:29:24.495Z,6.90
2023-05-05T12:31:51.758Z,3.20
2023-05-05T12:34:18.883Z,3.20
2023-05-05T12:36:46.087Z,5.30
2023-05-05T12:39:13.110Z,3.70
2023-05-05T12:41:40.248Z,3.90
2023-05-05T12:44:08.047Z,2.90
2023-05-05T12:46:45.535Z,5.70
2023-05-05T12:49:12.614Z,6.10
2023-05-05T12:51:39.616Z,4.60
2023-05-05T12:54:07.701Z,4.10
2023-05-05T12:56:35.474Z,4.80
2023-05-05T12:59:04.330Z,5.20
2023-05-05T13:01:31.456Z,9.10
2023-05-05T13:04:12.229Z,4.10
2023-05-05T13:06:40.662Z,3.80
2023-05-05T13:09:07.892Z,2.90
2023-05-05T13:11:39.203Z,4.20
2023-05-05T13:14:06.612Z,4.70
2023-05-05T13:16:34.048Z,3.80
2023-05-05T13:19:01.048Z,4.00
2023-05-05T13:21:28.212Z,5.50
2023-05-05T13:24:01.580Z,4.80
2023-05-05T13:26:39.360Z,5.60
2023-05-05T13:29:06.361Z,3.60
2023-05-05T13:31:33.358Z,4.50
2023-05-05T13:34:00.410Z,12.20
2023-05-05T13:36:27.815Z,3.70
2023-05-05T13:38:54.798Z,6.00
2023-05-05T13:41:21.704Z,5.20
2023-05-05T13:43:49.300Z,5.00
2023-05-05T13:46:20.053Z,7.60
2023-05-05T13:48:47.493Z,4.50
2023-05-05T13:51:15.885Z,4.80
2023-05-05T13:53:44.256Z,3.50
2023-05-05T13:56:11.360Z,5.90
2023-05-05T13:58:38.251Z,5.60
2023-05-05T14:01:23.719Z,4.00
2023-05-05T14:04:05.414Z,4.50
2023-05-05T14:06:34.093Z,4.10
2023-05-05T14:09:01.039Z,2.90
2023-05-05T14:11:28.109Z,3.00
2023-05-05T14:13:55.068Z,5.40
2023-05-05T14:16:22.050Z,3.70
2023-05-05T14:18:49.025Z,6.40
2023-05-05T14:21:16.008Z,3.80
2023-05-05T14:23:42.921Z,2.80
2023-05-05T14:26:09.781Z,3.50
2023-05-05T14:28:36.660Z,4.30
2023-05-05T14:31:03.716Z,3.80
2023-05-05T14:33:30.657Z,3.80
2023-05-05T14:35:57.535Z,3.50
2023-05-05T14:38:24.507Z,3.10
2023-05-05T14:40:51.509Z,4.10
2023-05-05T14:43:18.457Z,4.50
2023-05-05T14:45:45.530Z,6.20
2023-05-05T14:48:33.033Z,3.00
2023-05-05T14:51:17.005Z,5.40
2023-05-05T14:53:43.966Z,3.90
2023-05-05T14:56:31.041Z,2.70
2023-05-05T14:59:11.689Z,3.70
2023-05-05T15:01:38.611Z,2.30
2023-05-05T15:04:05.955Z,4.90
2023-05-05T15:06:32.948Z,4.70
2023-05-05T15:09:00.132Z,4.50
2023-05-05T15:11:27.017Z,5.70
2023-05-05T15:13:54.011Z,6.30
2023-05-05T15:16:21.328Z,3.70
2023-05-05T15:18:48.319Z,5.30
2023-05-05T15:21:15.609Z,11.50
2023-05-05T15:23:42.626Z,3.20
2023-05-05T15:26:09.514Z,3.90
2023-05-05T15:28:36.543Z,3.20
2023-05-05T15:31:03.702Z,4.70
2023-05-05T15:33:31.190Z,3.80
2023-05-05T15:35:58.109Z,4.50
2023-05-05T15:38:25.700Z,4.30
2023-05-05T15:40:52.715Z,4.40
2023-05-05T15:43:19.869Z,3.50
2023-05-05T15:45:46.830Z,6.50
2023-05-05T15:48:14.021Z,3.70
2023-05-05T15:50:41.027Z,3.50
2023-05-05T15:53:07.958Z,4.20
2023-05-05T15:55:35.951Z,2.60
2023-05-05T15:58:02.854Z,3.20
2023-05-05T16:00:31.597Z,5.80
2023-05-05T16:02:58.597Z,2.50
2023-05-05T16:05:25.899Z,2.60
2023-05-05T16:07:53.837Z,3.10
2023-05-05T16:10:20.969Z,3.20
2023-05-05T16:12:47.899Z,3.40
2023-05-05T16:15:14.838Z,3.30
2023-05-05T16:17:41.776Z,2.30
2023-05-05T16:20:09.406Z,3.30
2023-05-05T16:22:37.061Z,2.90
2023-05-05T16:25:04.385Z,2.50
2023-05-05T16:27:31.423Z,2.70
2023-05-05T16:29:59.805Z,2.80
2023-05-05T16:32:27.029Z,5.70
2023-05-05T16:34:54.017Z,2.50
2023-05-05T16:37:20.968Z,2.10
2023-05-05T16:39:48.024Z,3.20
2023-05-05T16:42:14.901Z,2.40
2023-05-05T16:44:41.916Z,4.20
2023-05-05T16:47:09.506Z,4.40
2023-05-05T16:49:36.550Z,5.50
2023-05-05T16:52:03.694Z,3.20
2023-05-05T16:54:30.897Z,3.10
2023-05-05T16:56:58.420Z,6.60
2023-05-05T16:59:25.285Z,3.90
2023-05-05T17:01:52.265Z,2.50
2023-05-05T17:04:19.571Z,4.20
2023-05-05T17:06:46.438Z,3.90
2023-05-05T17:09:13.330Z,3.30
2023-05-05T17:11:40.335Z,5.00
2023-05-05T17:14:07.285Z,3.00
2023-05-05T17:16:34.593Z,4.10
2023-05-05T17:19:02.000Z,8.40
2023-05-05T17:21:29.467Z,6.20
2023-05-05T17:23:57.018Z,5.40
2023-05-05T17:26:24.703Z,4.20
2023-05-05T17:28:52.004Z,4.50
2023-05-05T17:31:19.121Z,4.80
2023-05-05T17:33:46.151Z,3.60
2023-05-05T17:36:13.208Z,3.70
2023-05-05T17:38:40.138Z,4.10
2023-05-05T17:41:07.600Z,4.40
2023-05-05T17:43:34.665Z,8.80
2023-05-05T17:46:01.965Z,6.90
2023-05-05T17:48:29.018Z,6.00
2023-05-05T17:50:56.244Z,4.40
2023-05-05T17:53:23.395Z,6.30
2023-05-05T17:55:50.452Z,6.20
2023-05-05T17:58:17.398Z,8.80
2023-05-05T18:00:44.371Z,6.90
2023-05-05T18:03:11.497Z,9.90
2023-05-05T18:05:39.596Z,11.10
2023-05-05T18:08:07.045Z,10.00
2023-05-05T18:10:33.894Z,11.10
2023-05-05T18:13:00.827Z,14.00
2023-05-05T18:15:29.901Z,11.30
2023-05-05T18:17:56.893Z,10.90
2023-05-05T18:20:23.725Z,8.30
2023-05-05T18:22:50.600Z,13.90
2023-05-05T18:25:17.542Z,10.90
2023-05-05T18:27:44.606Z,12.20
2023-05-05T18:30:12.111Z,12.90
2023-05-05T18:32:39.144Z,10.80
2023-05-05T18:35:07.217Z,10.40
2023-05-05T18:37:34.550Z,12.10
2023-05-05T18:40:01.376Z,8.00
2023-05-05T18:42:28.229Z,6.50
2023-05-05T18:44:55.130Z,5.90
2023-05-05T18:47:22.359Z,8.00
2023-05-05T18:49:49.840Z,17.00
2023-05-05T18:52:17.175Z,59.20
2023-05-05T18:54:44.023Z,63.20
2023-05-05T18:57:11.086Z,84.40
2023-05-05T18:59:37.918Z,60.90
2023-05-05T19:02:04.811Z,39.10
2023-05-05T19:04:32.817Z,16.90
2023-05-05T19:07:00.331Z,16.40
2023-05-05T19:09:27.775Z,12.00
2023-05-05T19:11:54.634Z,14.80
2023-05-05T19:14:22.391Z,8.00
2023-05-05T19:16:49.413Z,6.50
2023-05-05T19:19:16.696Z,7.30
2023-05-05T19:21:43.556Z,9.20
2023-05-05T19:24:10.599Z,5.00
2023-05-05T19:26:37.573Z,7.20
2023-05-05T19:29:04.632Z,5.40
2023-05-05T19:31:31.911Z,6.00
2023-05-05T19:34:03.237Z,16.30
2023-05-05T19:36:33.802Z,23.90
2023-05-05T19:39:02.035Z,15.10
2023-05-05T19:41:30.718Z,20.90
2023-05-05T19:43:57.708Z,18.40
2023-05-05T19:46:27.552Z,14.60
2023-05-05T19:48:54.557Z,28.00
2023-05-05T19:51:21.593Z,17.40
2023-05-05T19:53:48.528Z,13.50
2023-05-05T19:56:15.483Z,7.10
2023-05-05T19:59:01.778Z,7.60
2023-05-05T20:01:29.145Z,4.90
2023-05-05T20:03:56.667Z,3.10
2023-05-05T20:06:23.859Z,4.60
2023-05-05T20:08:51.010Z,6.80
2023-05-05T20:11:18.382Z,5.80
2023-05-05T20:13:45.349Z,8.60
2023-05-05T20:16:12.580Z,6.10
2023-05-05T20:18:40.464Z,5.10
2023-05-05T20:21:07.352Z,8.50
2023-05-05T20:23:34.453Z,4.10
2023-05-05T20:26:01.812Z,3.40
2023-05-05T20:28:31.699Z,4.10
2023-05-05T20:30:58.728Z,4.90
2023-05-05T20:33:25.965Z,3.50
2023-05-05T20:35:52.805Z,5.80
2023-05-05T20:38:19.746Z,6.10
2023-05-05T20:40:46.723Z,4.00
2023-05-05T20:43:13.599Z,4.50
2023-05-05T20:45:40.489Z,5.80
2023-05-05T20:48:09.860Z,5.30
2023-05-05T20:50:40.755Z,5.60
2023-05-05T20:53:07.892Z,6.40
2023-05-05T20:55:34.915Z,5.00
2023-05-05T20:58:01.833Z,5.80
2023-05-05T21:00:28.855Z,5.20
2023-05-05T21:02:57.175Z,6.20
2023-05-05T21:05:24.485Z,7.40
2023-05-05T21:07:53.343Z,5.50
2023-05-05T21:10:20.683Z,4.90
2023-05-05T21:12:47.566Z,5.40
2023-05-05T21:15:16.696Z,3.70
2023-05-05T21:17:43.868Z,3.80
2023-05-05T21:20:11.674Z,5.70
2023-05-05T21:22:38.969Z,4.90
2023-05-05T21:25:13.806Z,3.30
2023-05-05T21:27:40.736Z,5.20
2023-05-05T21:30:10.664Z,5.10
2023-05-05T21:32:38.911Z,4.80
2023-05-05T21:35:06.926Z,4.10
2023-05-05T21:37:33.816Z,4.20
2023-05-05T21:40:01.007Z,5.00
2023-05-05T21:42:29.664Z,5.10
2023-05-05T21:44:56.787Z,4.90
2023-05-05T21:47:23.699Z,3.50
2023-05-05T21:49:50.680Z,5.10
2023-05-05T21:52:17.530Z,6.30
2023-05-05T21:54:44.581Z,3.40
2023-05-05T21:57:11.427Z,3.80
2023-05-05T21:59:38.416Z,4.50
2023-05-05T22:02:05.403Z,3.30
2023-05-05T22:04:32.227Z,4.10
2023-05-05T22:06:59.233Z,3.50
2023-05-05T22:09:26.079Z,3.50
2023-05-05T22:11:53.032Z,4.60
2023-05-05T22:14:19.981Z,4.10
2023-05-05T22:16:46.843Z,4.50
2023-05-05T22:19:13.777Z,5.10
2023-05-05T22:21:40.622Z,4.50
2023-05-05T22:24:07.660Z,6.50
2023-05-05T22:26:34.630Z,4.00
2023-05-05T22:29:01.682Z,4.70
2023-05-05T22:31:29.585Z,3.50
2023-05-05T22:33:56.512Z,5.30
2023-05-05T22:36:23.568Z,3.30
2023-05-05T22:38:50.502Z,3.70
2023-05-05T22:41:17.333Z,5.30
2023-05-05T22:43:44.352Z,5.70
2023-05-05T22:46:11.260Z,6.40
2023-05-05T22:48:38.086Z,3.80
2023-05-05T22:51:05.569Z,5.70
2023-05-05T22:53:32.401Z,4.70
2023-05-05T22:55:59.227Z,5.50
2023-05-05T22:58:26.847Z,2.60
2023-05-05T23:00:53.753Z,5.10
2023-05-05T23:03:20.633Z,3.50
2023-05-05T23:05:47.445Z,3.10
2023-05-05T23:08:14.334Z,4.30
2023-05-05T23:10:41.278Z,4.70
2023-05-05T23:13:08.214Z,3.60
2023-05-05T23:15:35.320Z,3.90
2023-05-05T23:18:02.359Z,5.30
2023-05-05T23:20:29.792Z,3.70
2023-05-05T23:22:56.706Z,5.40
2023-05-05T23:25:23.551Z,4.20
2023-05-05T23:27:50.786Z,5.30
2023-05-05T23:30:18.449Z,4.70
2023-05-05T23:32:46.023Z,3.90
2023-05-05T23:35:12.935Z,4.70
2023-05-05T23:37:39.890Z,6.20
2023-05-05T23:40:07.446Z,3.60
2023-05-05T23:42:34.405Z,5.50
2023-05-05T23:45:01.381Z,6.20
2023-05-05T23:47:28.267Z,2.70
2023-05-05T23:49:55.214Z,3.00
2023-05-05T23:52:22.605Z,5.80
2023-05-05T23:54:49.458Z,4.10
2023-05-05T23:57:16.506Z,5.00
2023-05-05T23:59:43.355Z,3.10
